sensor_id;sensor_type;location;lat;lon;timestamp;pressure;altitude;pressure_sealevel;temperature;humidity
11912;BME280;6016;41.928;25.556;2022-10-16T00:00:42;99767.75;;;15.17;57.65
11912;BME280;6016;41.928;25.556;2022-10-16T00:03:09;99781.19;;;15.33;57.12
11912;BME280;6016;41.928;25.556;2022-10-16T00:05:41;99762.56;;;15.33;57.55
11912;BME280;6016;41.928;25.556;2022-10-16T00:08:08;99786.63;;;15.50;57.49
11912;BME280;6016;41.928;25.556;2022-10-16T00:10:35;99788.25;;;15.43;55.70
11912;BME280;6016;41.928;25.556;2022-10-16T00:13:03;99694.50;;;14.78;57.75
11912;BME280;6016;41.928;25.556;2022-10-16T00:15:33;99752.78;;;15.16;57.80
11912;BME280;6016;41.928;25.556;2022-10-16T00:18:01;99798.38;;;15.47;56.99
11912;BME280;6016;41.928;25.556;2022-10-16T00:20:29;99805.41;;;15.49;56.45
11912;BME280;6016;41.928;25.556;2022-10-16T00:22:59;99756.59;;;15.13;56.68
11912;BME280;6016;41.928;25.556;2022-10-16T00:25:25;99803.69;;;15.47;56.88
11912;BME280;6016;41.928;25.556;2022-10-16T00:27:52;99792.91;;;15.49;56.51
11912;BME280;6016;41.928;25.556;2022-10-16T00:30:19;99791.28;;;15.30;56.66
11912;BME280;6016;41.928;25.556;2022-10-16T00:32:47;99813.75;;;15.36;56.50
11912;BME280;6016;41.928;25.556;2022-10-16T00:35:14;99807.09;;;15.31;56.58
11912;BME280;6016;41.928;25.556;2022-10-16T00:37:41;99812.00;;;15.26;56.56
11912;BME280;6016;41.928;25.556;2022-10-16T00:40:09;99755.69;;;14.86;58.30
11912;BME280;6016;41.928;25.556;2022-10-16T00:42:37;99636.94;;;14.14;58.60
11912;BME280;6016;41.928;25.556;2022-10-16T00:45:04;99815.97;;;15.22;58.50
11912;BME280;6016;41.928;25.556;2022-10-16T00:47:34;99741.13;;;14.90;57.28
11912;BME280;6016;41.928;25.556;2022-10-16T00:50:07;99810.94;;;15.37;57.09
11912;BME280;6016;41.928;25.556;2022-10-16T00:52:36;99749.16;;;14.99;58.05
11912;BME280;6016;41.928;25.556;2022-10-16T00:55:05;99812.66;;;15.46;57.70
11912;BME280;6016;41.928;25.556;2022-10-16T00:57:32;99782.63;;;15.28;57.28
11912;BME280;6016;41.928;25.556;2022-10-16T00:59:59;99719.97;;;14.71;56.22
11912;BME280;6016;41.928;25.556;2022-10-16T01:02:26;99806.53;;;15.28;57.48
11912;BME280;6016;41.928;25.556;2022-10-16T01:04:53;99806.84;;;15.25;57.47
11912;BME280;6016;41.928;25.556;2022-10-16T01:07:30;99803.66;;;15.21;56.04
11912;BME280;6016;41.928;25.556;2022-10-16T01:10:07;99782.84;;;14.98;56.24
11912;BME280;6016;41.928;25.556;2022-10-16T01:12:41;99775.84;;;14.79;56.41
11912;BME280;6016;41.928;25.556;2022-10-16T01:15:17;99800.22;;;14.93;57.49
11912;BME280;6016;41.928;25.556;2022-10-16T01:17:51;99744.75;;;14.43;57.67
11912;BME280;6016;41.928;25.556;2022-10-16T01:20:26;99735.94;;;14.43;56.77
11912;BME280;6016;41.928;25.556;2022-10-16T01:23:10;99711.44;;;14.31;58.01
11912;BME280;6016;41.928;25.556;2022-10-16T01:25:55;99831.91;;;15.04;56.75
11912;BME280;6016;41.928;25.556;2022-10-16T01:28:34;99796.88;;;14.72;56.52
11912;BME280;6016;41.928;25.556;2022-10-16T01:31:03;99461.63;;;12.69;57.68
11912;BME280;6016;41.928;25.556;2022-10-16T01:33:35;99589.31;;;13.48;56.99
11912;BME280;6016;41.928;25.556;2022-10-16T01:36:10;99697.69;;;14.17;57.64
11912;BME280;6016;41.928;25.556;2022-10-16T01:38:40;99709.53;;;14.23;56.97
11912;BME280;6016;41.928;25.556;2022-10-16T01:41:10;99836.88;;;14.89;57.00
11912;BME280;6016;41.928;25.556;2022-10-16T01:43:42;99846.16;;;15.03;57.27
11912;BME280;6016;41.928;25.556;2022-10-16T01:46:10;99738.59;;;14.43;57.13
11912;BME280;6016;41.928;25.556;2022-10-16T01:48:39;99792.66;;;14.70;56.88
11912;BME280;6016;41.928;25.556;2022-10-16T01:51:10;99806.44;;;14.55;57.38
11912;BME280;6016;41.928;25.556;2022-10-16T01:53:39;99766.50;;;14.29;57.06
11912;BME280;6016;41.928;25.556;2022-10-16T01:56:08;99768.41;;;14.37;58.06
11912;BME280;6016;41.928;25.556;2022-10-16T01:58:39;99790.81;;;14.52;58.39
11912;BME280;6016;41.928;25.556;2022-10-16T02:01:11;99843.19;;;14.88;57.86
11912;BME280;6016;41.928;25.556;2022-10-16T02:03:42;99688.16;;;13.97;58.31
11912;BME280;6016;41.928;25.556;2022-10-16T02:06:11;99772.97;;;14.44;56.96
11912;BME280;6016;41.928;25.556;2022-10-16T02:08:38;99828.53;;;14.84;56.64
11912;BME280;6016;41.928;25.556;2022-10-16T02:11:09;99855.22;;;14.82;55.42
11912;BME280;6016;41.928;25.556;2022-10-16T02:13:39;99789.97;;;14.24;55.27
11912;BME280;6016;41.928;25.556;2022-10-16T02:16:12;99736.94;;;13.86;56.85
11912;BME280;6016;41.928;25.556;2022-10-16T02:18:39;99554.22;;;12.79;57.91
11912;BME280;6016;41.928;25.556;2022-10-16T02:21:13;99862.13;;;14.75;56.99
11912;BME280;6016;41.928;25.556;2022-10-16T02:23:49;99867.16;;;14.68;57.93
11912;BME280;6016;41.928;25.556;2022-10-16T02:26:23;99851.97;;;14.60;58.33
11912;BME280;6016;41.928;25.556;2022-10-16T02:28:55;99857.22;;;14.70;57.48
11912;BME280;6016;41.928;25.556;2022-10-16T02:31:28;99860.00;;;14.79;57.56
11912;BME280;6016;41.928;25.556;2022-10-16T02:34:00;99858.75;;;14.83;56.41
11912;BME280;6016;41.928;25.556;2022-10-16T02:36:31;99845.53;;;14.63;56.31
11912;BME280;6016;41.928;25.556;2022-10-16T02:38:59;99380.06;;;11.67;56.79
11912;BME280;6016;41.928;25.556;2022-10-16T02:41:26;99841.78;;;14.56;56.53
11912;BME280;6016;41.928;25.556;2022-10-16T02:43:54;99808.09;;;14.28;56.02
11912;BME280;6016;41.928;25.556;2022-10-16T02:46:21;99845.72;;;14.52;56.24
11912;BME280;6016;41.928;25.556;2022-10-16T02:48:49;99866.19;;;14.69;55.85
11912;BME280;6016;41.928;25.556;2022-10-16T02:51:16;99874.16;;;14.69;56.75
11912;BME280;6016;41.928;25.556;2022-10-16T02:53:43;99844.47;;;14.46;56.43
11912;BME280;6016;41.928;25.556;2022-10-16T02:56:10;99736.56;;;13.71;57.92
11912;BME280;6016;41.928;25.556;2022-10-16T02:58:37;99839.22;;;14.36;57.71
11912;BME280;6016;41.928;25.556;2022-10-16T03:01:04;99801.19;;;14.07;56.02
11912;BME280;6016;41.928;25.556;2022-10-16T03:03:31;99829.06;;;14.21;57.21
11912;BME280;6016;41.928;25.556;2022-10-16T03:05:59;99879.41;;;14.51;56.50
11912;BME280;6016;41.928;25.556;2022-10-16T03:08:26;99842.66;;;14.09;57.84
11912;BME280;6016;41.928;25.556;2022-10-16T03:10:53;99846.53;;;14.14;56.99
11912;BME280;6016;41.928;25.556;2022-10-16T03:13:20;99877.94;;;14.29;56.80
11912;BME280;6016;41.928;25.556;2022-10-16T03:15:47;99781.75;;;13.69;58.29
11912;BME280;6016;41.928;25.556;2022-10-16T03:18:14;99854.97;;;14.10;57.79
11912;BME280;6016;41.928;25.556;2022-10-16T03:20:42;99878.63;;;14.31;57.63
11912;BME280;6016;41.928;25.556;2022-10-16T03:23:11;99843.28;;;13.92;57.89
11912;BME280;6016;41.928;25.556;2022-10-16T03:25:38;99888.00;;;14.25;58.30
11912;BME280;6016;41.928;25.556;2022-10-16T03:28:05;99858.03;;;14.05;57.32
11912;BME280;6016;41.928;25.556;2022-10-16T03:30:32;99833.19;;;13.96;57.29
11912;BME280;6016;41.928;25.556;2022-10-16T03:32:59;99877.56;;;14.14;57.87
11912;BME280;6016;41.928;25.556;2022-10-16T03:35:26;99892.72;;;14.31;57.69
11912;BME280;6016;41.928;25.556;2022-10-16T03:37:53;99919.69;;;14.27;57.44
11912;BME280;6016;41.928;25.556;2022-10-16T03:40:21;99898.72;;;14.33;58.06
11912;BME280;6016;41.928;25.556;2022-10-16T03:42:48;99921.63;;;14.34;57.29
11912;BME280;6016;41.928;25.556;2022-10-16T03:45:16;99898.03;;;14.31;57.23
11912;BME280;6016;41.928;25.556;2022-10-16T03:47:42;99884.84;;;14.12;57.96
11912;BME280;6016;41.928;25.556;2022-10-16T03:50:09;99899.19;;;14.29;58.20
11912;BME280;6016;41.928;25.556;2022-10-16T03:52:36;99865.44;;;14.01;57.54
11912;BME280;6016;41.928;25.556;2022-10-16T03:55:04;99903.63;;;14.28;58.61
11912;BME280;6016;41.928;25.556;2022-10-16T03:57:32;99920.25;;;14.30;57.40
11912;BME280;6016;41.928;25.556;2022-10-16T03:59:59;99861.25;;;13.99;56.81
11912;BME280;6016;41.928;25.556;2022-10-16T04:02:26;99905.59;;;14.26;57.94
11912;BME280;6016;41.928;25.556;2022-10-16T04:04:53;99914.69;;;14.24;58.82
11912;BME280;6016;41.928;25.556;2022-10-16T04:07:20;99849.81;;;13.88;59.03
11912;BME280;6016;41.928;25.556;2022-10-16T04:09:47;99812.44;;;13.72;57.99
11912;BME280;6016;41.928;25.556;2022-10-16T04:12:14;99872.53;;;14.01;58.77
11912;BME280;6016;41.928;25.556;2022-10-16T04:14:42;99913.91;;;14.51;57.36
11912;BME280;6016;41.928;25.556;2022-10-16T04:17:09;99902.19;;;14.54;57.13
11912;BME280;6016;41.928;25.556;2022-10-16T04:19:36;99911.25;;;14.51;56.32
11912;BME280;6016;41.928;25.556;2022-10-16T04:22:03;99913.50;;;14.46;57.09
11912;BME280;6016;41.928;25.556;2022-10-16T04:24:30;99836.56;;;13.88;57.20
11912;BME280;6016;41.928;25.556;2022-10-16T04:26:56;99911.00;;;14.34;57.50
11912;BME280;6016;41.928;25.556;2022-10-16T04:29:23;99928.91;;;14.32;57.06
11912;BME280;6016;41.928;25.556;2022-10-16T04:31:52;99267.31;;;10.28;57.82
11912;BME280;6016;41.928;25.556;2022-10-16T04:34:19;99883.00;;;14.12;57.07
11912;BME280;6016;41.928;25.556;2022-10-16T04:36:47;99918.16;;;14.34;57.09
11912;BME280;6016;41.928;25.556;2022-10-16T04:39:14;99893.50;;;13.94;58.53
11912;BME280;6016;41.928;25.556;2022-10-16T04:41:40;99906.78;;;14.04;58.50
11912;BME280;6016;41.928;25.556;2022-10-16T04:44:08;99921.91;;;14.31;58.15
11912;BME280;6016;41.928;25.556;2022-10-16T04:46:35;99911.88;;;14.15;58.41
11912;BME280;6016;41.928;25.556;2022-10-16T04:49:03;99926.94;;;14.34;58.50
11912;BME280;6016;41.928;25.556;2022-10-16T04:51:30;99938.53;;;14.33;57.38
11912;BME280;6016;41.928;25.556;2022-10-16T04:53:57;99936.31;;;14.39;57.25
11912;BME280;6016;41.928;25.556;2022-10-16T04:56:24;99937.69;;;14.43;57.50
11912;BME280;6016;41.928;25.556;2022-10-16T04:58:51;99943.84;;;14.43;56.94
11912;BME280;6016;41.928;25.556;2022-10-16T05:01:18;99829.91;;;13.74;57.22
11912;BME280;6016;41.928;25.556;2022-10-16T05:03:45;99936.84;;;14.42;57.07
11912;BME280;6016;41.928;25.556;2022-10-16T05:06:13;99888.00;;;14.15;58.29
11912;BME280;6016;41.928;25.556;2022-10-16T05:08:40;99882.19;;;14.12;57.19
11912;BME280;6016;41.928;25.556;2022-10-16T05:11:07;99888.56;;;14.19;57.03
11912;BME280;6016;41.928;25.556;2022-10-16T05:13:34;99934.03;;;14.44;56.88
11912;BME280;6016;41.928;25.556;2022-10-16T05:16:01;99900.97;;;14.28;56.84
11912;BME280;6016;41.928;25.556;2022-10-16T05:18:28;99853.59;;;13.96;56.88
11912;BME280;6016;41.928;25.556;2022-10-16T05:20:55;99966.41;;;14.67;56.89
11912;BME280;6016;41.928;25.556;2022-10-16T05:23:23;99961.78;;;14.69;56.79
11912;BME280;6016;41.928;25.556;2022-10-16T05:25:54;99970.44;;;14.71;56.67
11912;BME280;6016;41.928;25.556;2022-10-16T05:28:24;99976.34;;;14.75;56.77
11912;BME280;6016;41.928;25.556;2022-10-16T05:30:50;99934.19;;;14.42;56.76
11912;BME280;6016;41.928;25.556;2022-10-16T05:33:19;100004.81;;;14.83;54.02
11912;BME280;6016;41.928;25.556;2022-10-16T05:35:47;99981.06;;;14.81;56.62
11912;BME280;6016;41.928;25.556;2022-10-16T05:38:15;99938.78;;;14.50;54.82
11912;BME280;6016;41.928;25.556;2022-10-16T05:40:50;99964.34;;;14.51;54.37
11912;BME280;6016;41.928;25.556;2022-10-16T05:43:17;99991.91;;;14.20;55.57
11912;BME280;6016;41.928;25.556;2022-10-16T05:45:44;99975.03;;;14.02;56.12
11912;BME280;6016;41.928;25.556;2022-10-16T05:48:11;99800.72;;;12.35;57.27
11912;BME280;6016;41.928;25.556;2022-10-16T05:50:38;100020.97;;;14.22;57.13
11912;BME280;6016;41.928;25.556;2022-10-16T05:53:05;99925.06;;;13.87;57.94
11912;BME280;6016;41.928;25.556;2022-10-16T05:55:32;100000.53;;;14.52;57.25
11912;BME280;6016;41.928;25.556;2022-10-16T05:58:00;99735.78;;;13.11;56.59
11912;BME280;6016;41.928;25.556;2022-10-16T06:00:27;99984.69;;;14.80;56.53
11912;BME280;6016;41.928;25.556;2022-10-16T06:02:54;99869.59;;;14.14;56.03
11912;BME280;6016;41.928;25.556;2022-10-16T06:05:21;99808.09;;;13.90;55.93
11912;BME280;6016;41.928;25.556;2022-10-16T06:07:48;99893.50;;;14.52;55.27
11912;BME280;6016;41.928;25.556;2022-10-16T06:10:15;100008.13;;;15.23;54.92
11912;BME280;6016;41.928;25.556;2022-10-16T06:12:42;100006.53;;;15.12;55.87
11912;BME280;6016;41.928;25.556;2022-10-16T06:15:10;100009.84;;;15.24;55.43
11912;BME280;6016;41.928;25.556;2022-10-16T06:17:37;100010.34;;;15.37;55.72
11912;BME280;6016;41.928;25.556;2022-10-16T06:20:05;99997.19;;;15.08;55.78
11912;BME280;6016;41.928;25.556;2022-10-16T06:22:32;100018.09;;;16.31;53.82
11912;BME280;6016;41.928;25.556;2022-10-16T06:24:59;99939.81;;;17.20;50.59
11912;BME280;6016;41.928;25.556;2022-10-16T06:27:25;100020.28;;;18.99;47.65
11912;BME280;6016;41.928;25.556;2022-10-16T06:29:52;100014.28;;;20.23;44.46
11912;BME280;6016;41.928;25.556;2022-10-16T06:32:23;99988.75;;;20.66;42.88
11912;BME280;6016;41.928;25.556;2022-10-16T06:34:50;100024.13;;;21.30;42.33
11912;BME280;6016;41.928;25.556;2022-10-16T06:37:17;99926.91;;;20.37;42.78
11912;BME280;6016;41.928;25.556;2022-10-16T06:39:44;100028.31;;;20.49;44.03
11912;BME280;6016;41.928;25.556;2022-10-16T06:42:11;99914.63;;;19.43;44.31
11912;BME280;6016;41.928;25.556;2022-10-16T06:44:38;100036.97;;;21.19;42.57
11912;BME280;6016;41.928;25.556;2022-10-16T06:47:05;99989.81;;;21.62;41.67
11912;BME280;6016;41.928;25.556;2022-10-16T06:49:33;100071.34;;;21.76;41.48
11912;BME280;6016;41.928;25.556;2022-10-16T06:52:00;99334.63;;;16.88;42.20
11912;BME280;6016;41.928;25.556;2022-10-16T06:54:27;100049.66;;;20.96;43.80
11912;BME280;6016;41.928;25.556;2022-10-16T06:56:54;99916.41;;;19.98;44.30
11912;BME280;6016;41.928;25.556;2022-10-16T06:59:21;99866.34;;;19.60;44.14
11912;BME280;6016;41.928;25.556;2022-10-16T07:01:48;99820.44;;;19.24;44.12
11912;BME280;6016;41.928;25.556;2022-10-16T07:04:15;99976.72;;;20.47;43.66
11912;BME280;6016;41.928;25.556;2022-10-16T07:06:44;100036.59;;;21.22;43.01
11912;BME280;6016;41.928;25.556;2022-10-16T07:09:11;100056.88;;;21.25;42.26
11912;BME280;6016;41.928;25.556;2022-10-16T07:11:39;100053.69;;;20.76;43.52
11912;BME280;6016;41.928;25.556;2022-10-16T07:14:12;100014.28;;;20.62;42.78
11912;BME280;6016;41.928;25.556;2022-10-16T07:16:41;100054.91;;;20.35;43.72
11912;BME280;6016;41.928;25.556;2022-10-16T07:19:08;99969.41;;;19.56;44.23
11912;BME280;6016;41.928;25.556;2022-10-16T07:21:37;99853.44;;;18.85;43.68
11912;BME280;6016;41.928;25.556;2022-10-16T07:24:07;100036.31;;;20.34;43.67
11912;BME280;6016;41.928;25.556;2022-10-16T07:26:37;100042.16;;;20.14;43.60
11912;BME280;6016;41.928;25.556;2022-10-16T07:29:05;100058.50;;;19.96;44.46
11912;BME280;6016;41.928;25.556;2022-10-16T07:31:33;99970.59;;;19.21;44.26
11912;BME280;6016;41.928;25.556;2022-10-16T07:34:00;100051.03;;;19.83;45.29
11912;BME280;6016;41.928;25.556;2022-10-16T07:36:27;100040.63;;;19.96;44.04
11912;BME280;6016;41.928;25.556;2022-10-16T07:38:54;100003.19;;;20.12;43.78
11912;BME280;6016;41.928;25.556;2022-10-16T07:41:22;100042.13;;;20.76;41.98
11912;BME280;6016;41.928;25.556;2022-10-16T07:43:51;100026.66;;;20.63;40.86
11912;BME280;6016;41.928;25.556;2022-10-16T07:46:18;100036.78;;;20.76;41.65
11912;BME280;6016;41.928;25.556;2022-10-16T07:48:46;100026.63;;;21.16;40.44
11912;BME280;6016;41.928;25.556;2022-10-16T07:51:14;99912.53;;;21.20;38.42
11912;BME280;6016;41.928;25.556;2022-10-16T07:53:41;100033.25;;;22.81;36.74
11912;BME280;6016;41.928;25.556;2022-10-16T07:56:09;100047.31;;;23.54;36.72
11912;BME280;6016;41.928;25.556;2022-10-16T07:58:37;100051.75;;;23.88;35.91
11912;BME280;6016;41.928;25.556;2022-10-16T08:01:06;99876.41;;;22.45;35.30
11912;BME280;6016;41.928;25.556;2022-10-16T08:03:33;99277.72;;;18.86;36.83
11912;BME280;6016;41.928;25.556;2022-10-16T08:06:01;100052.25;;;23.15;36.52
11912;BME280;6016;41.928;25.556;2022-10-16T08:08:28;99999.22;;;22.67;35.84
11912;BME280;6016;41.928;25.556;2022-10-16T08:10:56;100025.75;;;22.48;37.04
11912;BME280;6016;41.928;25.556;2022-10-16T08:13:23;100049.50;;;22.44;37.46
11912;BME280;6016;41.928;25.556;2022-10-16T08:15:51;100012.81;;;22.08;37.74
11912;BME280;6016;41.928;25.556;2022-10-16T08:18:18;100005.31;;;22.03;38.61
11912;BME280;6016;41.928;25.556;2022-10-16T08:20:45;100006.78;;;22.06;38.28
11912;BME280;6016;41.928;25.556;2022-10-16T08:23:12;99888.03;;;21.24;37.06
11912;BME280;6016;41.928;25.556;2022-10-16T08:25:39;100007.53;;;21.78;37.53
11912;BME280;6016;41.928;25.556;2022-10-16T08:28:08;100059.44;;;22.00;37.74
11912;BME280;6016;41.928;25.556;2022-10-16T08:30:35;100034.78;;;21.60;38.21
11912;BME280;6016;41.928;25.556;2022-10-16T08:33:04;99985.84;;;21.06;39.19
11912;BME280;6016;41.928;25.556;2022-10-16T08:35:31;100047.16;;;21.39;38.90
11912;BME280;6016;41.928;25.556;2022-10-16T08:37:58;100044.94;;;20.98;38.16
11912;BME280;6016;41.928;25.556;2022-10-16T08:40:26;100046.78;;;20.82;39.38
11912;BME280;6016;41.928;25.556;2022-10-16T08:43:08;100055.28;;;21.16;39.76
11912;BME280;6016;41.928;25.556;2022-10-16T08:45:50;99996.69;;;20.83;39.32
11912;BME280;6016;41.928;25.556;2022-10-16T08:48:29;100023.38;;;20.91;38.22
11912;BME280;6016;41.928;25.556;2022-10-16T08:50:57;100066.41;;;21.13;39.34
11912;BME280;6016;41.928;25.556;2022-10-16T08:53:28;100057.25;;;21.22;39.11
11912;BME280;6016;41.928;25.556;2022-10-16T08:55:56;100056.78;;;21.18;38.97
11912;BME280;6016;41.928;25.556;2022-10-16T08:58:27;100051.03;;;21.21;39.11
11912;BME280;6016;41.928;25.556;2022-10-16T09:00:55;99934.25;;;20.74;37.58
11912;BME280;6016;41.928;25.556;2022-10-16T09:03:39;100046.53;;;21.59;37.32
11912;BME280;6016;41.928;25.556;2022-10-16T09:06:14;100005.59;;;21.35;37.22
11912;BME280;6016;41.928;25.556;2022-10-16T09:08:54;99941.44;;;21.03;38.00
11912;BME280;6016;41.928;25.556;2022-10-16T09:11:33;100047.84;;;21.63;37.41
11912;BME280;6016;41.928;25.556;2022-10-16T09:14:06;100051.56;;;21.62;37.86
11912;BME280;6016;41.928;25.556;2022-10-16T09:16:42;100056.25;;;21.60;37.79
11912;BME280;6016;41.928;25.556;2022-10-16T09:19:19;100030.59;;;21.35;36.82
11912;BME280;6016;41.928;25.556;2022-10-16T09:21:47;99911.13;;;20.58;37.97
11912;BME280;6016;41.928;25.556;2022-10-16T09:24:16;99977.78;;;21.06;37.74
11912;BME280;6016;41.928;25.556;2022-10-16T09:26:44;100054.44;;;21.45;37.01
11912;BME280;6016;41.928;25.556;2022-10-16T09:29:12;99973.34;;;20.98;38.32
11912;BME280;6016;41.928;25.556;2022-10-16T09:31:40;100047.56;;;21.58;37.12
11912;BME280;6016;41.928;25.556;2022-10-16T09:34:17;100050.47;;;21.56;37.04
11912;BME280;6016;41.928;25.556;2022-10-16T09:36:48;100023.06;;;21.46;37.40
11912;BME280;6016;41.928;25.556;2022-10-16T09:39:16;100030.00;;;21.55;38.74
11912;BME280;6016;41.928;25.556;2022-10-16T09:41:44;100004.66;;;21.43;38.67
11912;BME280;6016;41.928;25.556;2022-10-16T09:44:19;99999.13;;;21.29;38.38
11912;BME280;6016;41.928;25.556;2022-10-16T09:46:48;100036.19;;;21.56;36.91
11912;BME280;6016;41.928;25.556;2022-10-16T09:49:22;100006.19;;;21.52;38.40
11912;BME280;6016;41.928;25.556;2022-10-16T09:51:50;100023.09;;;21.83;37.64
11912;BME280;6016;41.928;25.556;2022-10-16T09:54:20;100025.97;;;22.03;38.43
11912;BME280;6016;41.928;25.556;2022-10-16T09:56:48;99974.44;;;21.71;37.18
11912;BME280;6016;41.928;25.556;2022-10-16T09:59:18;100018.47;;;22.20;35.36
11912;BME280;6016;41.928;25.556;2022-10-16T10:01:48;99991.72;;;22.12;35.35
11912;BME280;6016;41.928;25.556;2022-10-16T10:04:16;99950.88;;;21.95;34.86
11912;BME280;6016;41.928;25.556;2022-10-16T10:06:46;100021.38;;;22.47;36.35
11912;BME280;6016;41.928;25.556;2022-10-16T10:09:17;99999.81;;;22.40;35.91
11912;BME280;6016;41.928;25.556;2022-10-16T10:11:51;100004.69;;;22.52;36.03
11912;BME280;6016;41.928;25.556;2022-10-16T10:14:24;99967.81;;;22.45;36.28
11912;BME280;6016;41.928;25.556;2022-10-16T10:17:02;99997.69;;;22.57;33.71
11912;BME280;6016;41.928;25.556;2022-10-16T10:19:38;100013.69;;;22.66;35.95
11912;BME280;6016;41.928;25.556;2022-10-16T10:22:16;100017.78;;;22.61;34.62
11912;BME280;6016;41.928;25.556;2022-10-16T10:24:44;99950.84;;;22.16;33.57
11912;BME280;6016;41.928;25.556;2022-10-16T10:27:15;99952.25;;;22.12;34.14
11912;BME280;6016;41.928;25.556;2022-10-16T10:29:49;99949.56;;;22.12;35.68
11912;BME280;6016;41.928;25.556;2022-10-16T10:32:30;100004.75;;;22.37;34.80
11912;BME280;6016;41.928;25.556;2022-10-16T10:35:12;100006.69;;;21.99;35.66
11912;BME280;6016;41.928;25.556;2022-10-16T10:37:55;99922.28;;;21.43;35.28
11912;BME280;6016;41.928;25.556;2022-10-16T10:40:37;99940.59;;;21.40;35.55
11912;BME280;6016;41.928;25.556;2022-10-16T10:43:13;99989.41;;;21.65;35.35
11912;BME280;6016;41.928;25.556;2022-10-16T10:45:46;99972.81;;;21.40;36.43
11912;BME280;6016;41.928;25.556;2022-10-16T10:48:25;99844.66;;;20.68;35.52
11912;BME280;6016;41.928;25.556;2022-10-16T10:50:59;99985.63;;;21.59;36.96
11912;BME280;6016;41.928;25.556;2022-10-16T10:53:40;99997.88;;;21.62;36.88
11912;BME280;6016;41.928;25.556;2022-10-16T10:56:19;99991.34;;;21.71;35.22
11912;BME280;6016;41.928;25.556;2022-10-16T10:59:12;99906.88;;;21.30;34.93
11912;BME280;6016;41.928;25.556;2022-10-16T11:01:50;99895.22;;;21.23;34.83
11912;BME280;6016;41.928;25.556;2022-10-16T11:04:33;99853.88;;;20.80;36.13
11912;BME280;6016;41.928;25.556;2022-10-16T11:07:02;99978.94;;;21.70;35.77
11912;BME280;6016;41.928;25.556;2022-10-16T11:09:34;99943.88;;;21.57;35.26
11912;BME280;6016;41.928;25.556;2022-10-16T11:12:08;99938.78;;;21.62;35.09
11912;BME280;6016;41.928;25.556;2022-10-16T11:14:47;99857.66;;;21.23;35.33
11912;BME280;6016;41.928;25.556;2022-10-16T11:17:18;99894.06;;;21.54;34.09
11912;BME280;6016;41.928;25.556;2022-10-16T11:19:49;99825.81;;;20.98;34.81
11912;BME280;6016;41.928;25.556;2022-10-16T11:22:23;99859.06;;;21.19;32.89
11912;BME280;6016;41.928;25.556;2022-10-16T11:24:59;99905.91;;;21.60;33.58
11912;BME280;6016;41.928;25.556;2022-10-16T11:27:36;99632.53;;;19.82;34.75
11912;BME280;6016;41.928;25.556;2022-10-16T11:30:11;99742.44;;;20.56;33.48
11912;BME280;6016;41.928;25.556;2022-10-16T11:32:49;99955.66;;;21.99;33.22
11912;BME280;6016;41.928;25.556;2022-10-16T11:35:22;99963.28;;;21.96;32.67
11912;BME280;6016;41.928;25.556;2022-10-16T11:37:52;99961.75;;;21.86;33.18
11912;BME280;6016;41.928;25.556;2022-10-16T11:40:27;99805.13;;;20.92;34.15
11912;BME280;6016;41.928;25.556;2022-10-16T11:42:59;99780.16;;;20.91;32.87
11912;BME280;6016;41.928;25.556;2022-10-16T11:45:36;99871.16;;;21.52;34.47
11912;BME280;6016;41.928;25.556;2022-10-16T11:48:15;99678.38;;;20.24;32.14
11912;BME280;6016;41.928;25.556;2022-10-16T11:50:50;99522.78;;;19.46;34.53
11912;BME280;6016;41.928;25.556;2022-10-16T11:53:27;99949.13;;;22.09;34.25
11912;BME280;6016;41.928;25.556;2022-10-16T11:55:58;99956.16;;;22.10;32.34
11912;BME280;6016;41.928;25.556;2022-10-16T11:58:29;99785.28;;;21.08;32.01
11912;BME280;6016;41.928;25.556;2022-10-16T12:01:10;99820.09;;;21.23;33.31
11912;BME280;6016;41.928;25.556;2022-10-16T12:03:42;99961.59;;;22.16;33.32
11912;BME280;6016;41.928;25.556;2022-10-16T12:06:22;99907.84;;;21.88;33.51
11912;BME280;6016;41.928;25.556;2022-10-16T12:08:51;99947.63;;;22.28;32.88
11912;BME280;6016;41.928;25.556;2022-10-16T12:11:34;99820.59;;;21.33;32.94
11912;BME280;6016;41.928;25.556;2022-10-16T12:14:16;99944.34;;;22.04;32.08
11912;BME280;6016;41.928;25.556;2022-10-16T12:16:52;99849.63;;;21.45;32.10
11912;BME280;6016;41.928;25.556;2022-10-16T12:19:20;99783.03;;;21.12;33.48
11912;BME280;6016;41.928;25.556;2022-10-16T12:21:48;99956.22;;;22.16;31.28
11912;BME280;6016;41.928;25.556;2022-10-16T12:24:23;99943.59;;;21.88;32.71
11912;BME280;6016;41.928;25.556;2022-10-16T12:26:55;99946.59;;;22.00;33.78
11912;BME280;6016;41.928;25.556;2022-10-16T12:29:31;99912.38;;;21.87;33.05
11912;BME280;6016;41.928;25.556;2022-10-16T12:31:59;99965.19;;;22.24;32.68
11912;BME280;6016;41.928;25.556;2022-10-16T12:34:29;99969.56;;;22.31;32.30
11912;BME280;6016;41.928;25.556;2022-10-16T12:37:09;99885.69;;;21.86;32.11
11912;BME280;6016;41.928;25.556;2022-10-16T12:39:36;99956.75;;;22.05;32.67
11912;BME280;6016;41.928;25.556;2022-10-16T12:42:20;99903.34;;;21.95;32.93
11912;BME280;6016;41.928;25.556;2022-10-16T12:44:47;99964.53;;;22.22;32.28
11912;BME280;6016;41.928;25.556;2022-10-16T12:47:20;99908.72;;;21.95;33.50
11912;BME280;6016;41.928;25.556;2022-10-16T12:49:49;99940.56;;;21.98;32.33
11912;BME280;6016;41.928;25.556;2022-10-16T12:52:26;99963.47;;;22.16;31.35
11912;BME280;6016;41.928;25.556;2022-10-16T12:54:56;99921.41;;;22.01;30.86
11912;BME280;6016;41.928;25.556;2022-10-16T12:57:37;99962.97;;;22.34;30.24
11912;BME280;6016;41.928;25.556;2022-10-16T13:00:16;99935.88;;;21.78;32.51
11912;BME280;6016;41.928;25.556;2022-10-16T13:06:08;99958.47;;;22.13;32.14
11912;BME280;6016;41.928;25.556;2022-10-16T13:08:51;99960.97;;;22.14;32.55
11912;BME280;6016;41.928;25.556;2022-10-16T13:11:31;99909.25;;;21.84;32.92
11912;BME280;6016;41.928;25.556;2022-10-16T13:14:23;99957.63;;;22.12;32.86
11912;BME280;6016;41.928;25.556;2022-10-16T13:17:02;99910.22;;;21.76;32.47